Terminal Aerodrome Forecast
Issued by NWS

Home | Current Version | Previous Version | Text Only | Print | Product List | Glossary On
Versions: 1 2 3 4 5 6 7 8 9 10 11 12 13
115
FTUS41 KBTV 212336
TAFMSS
TAF
KMSS 212336Z 2200/2224 04006KT P6SM OVC050
     FM220300 04005KT P6SM OVC022
     FM220600 05006KT 4SM BR OVC008
     FM221700 06010G20KT P6SM OVC015
     FM221800 06013G23KT P6SM VCSH OVC020
     FM222000 06012KT 1 1/2SM -SN BR OVC018=

USA.gov is the U.S. government's official web portal to all federal, state and local government web resources and services.